Аэропорт: Гродно. Гродно

ICAO: UMMG

METAR:
Информация по данной станции не доступна
METAR:
2019-09-21 11:00:00
TAF UMMG 211100Z 2112/2121 27005G10MPS 5000 BR BKN008 BKN013CB TEMPO 2112/2117 29007G12MPS 2100 -SHRA BR BKN005